Time;durP1;ratioP1;P1;durP2;ratioP2;P2;SDS_P1;SDS_P2;PMS_P1;PMS_P2;Temp;Humidity;BMP_temperature;BMP_pressure;BME280_temperature;BME280_humidity;BME280_pressure;Samples;Min_cycle;Max_cycle;Signal;HPM_P1;HPM_P2
2022/09/08 06:20:19;;;;;;;1999.90;550.23;;;14.70;99.90;;;;;;4079986;23;20286;-69
2022/09/08 06:22:19;;;;;;;1999.90;614.40;;;14.60;99.90;;;;;;4075232;29;20272;-71
2022/09/08 06:24:20;;;;;;;1999.90;884.97;;;14.60;99.90;;;;;;4083566;29;20259;-70
2022/09/08 06:26:38;;;;;;;1999.90;410.27;;;14.50;99.90;;;;;;4083881;29;20180;-70
2022/09/08 06:29:11;;;;;;;1999.90;568.47;;;14.60;99.90;;;;;;4083163;29;20215;-70
2022/09/08 06:31:13;;;;;;;1999.90;749.73;;;14.80;99.90;;;;;;4081648;29;20251;-70
2022/09/08 06:33:18;;;;;;;1999.90;516.73;;;14.70;99.90;;;;;;4069591;29;20204;-70
2022/09/08 06:35:55;;;;;;;1999.90;441.23;;;14.70;99.90;;;;;;4067866;29;20223;-70
2022/09/08 06:38:10;;;;;;;1999.90;999.90;;;14.70;99.90;;;;;;4067973;29;20196;-70
2022/09/08 06:40:17;;;;;;;1999.90;621.23;;;14.70;99.90;;;;;;4065892;29;20319;-69
2022/09/08 06:42:37;;;;;;;1999.90;650.40;;;14.70;99.90;;;;;;4082352;29;20682;-69
2022/09/08 06:44:41;;;;;;;1999.90;538.80;;;14.70;99.90;;;;;;4067698;29;20192;-70
2022/09/08 06:46:42;;;;;;;1999.90;635.90;;;14.70;99.90;;;;;;4067857;29;20193;-70
2022/09/08 06:48:43;;;;;;;1999.90;773.70;;;14.80;99.90;;;;;;4066592;29;20220;-70
2022/09/08 06:51:19;;;;;;;1999.90;818.67;;;14.80;99.90;;;;;;4067201;29;20768;-70
2022/09/08 06:53:24;;;;;;;1999.90;468.43;;;14.70;99.90;;;;;;4065738;29;20208;-70
2022/09/08 06:55:52;;;;;;;1999.90;812.60;;;14.70;99.90;;;;;;4066195;29;20193;-71
2022/09/08 06:58:03;;;;;;;1999.90;775.03;;;14.80;99.90;;;;;;4067672;29;20245;-71
2022/09/08 07:00:15;;;;;;;1999.90;637.90;;;14.60;99.90;;;;;;4066871;29;20209;-71
2022/09/08 07:02:23;;;;;;;1999.90;697.07;;;14.50;99.90;;;;;;4067507;29;20207;-70
2022/09/08 07:04:45;;;;;;;1999.90;999.90;;;14.60;99.90;;;;;;4067378;29;20245;-70
2022/09/08 07:06:59;;;;;;;1999.90;642.97;;;14.70;99.90;;;;;;4067504;29;20248;-70
2022/09/08 07:09:34;;;;;;;1999.90;866.77;;;14.70;99.90;;;;;;4066897;29;20280;-70
2022/09/08 07:11:41;;;;;;;1999.90;658.63;;;14.80;99.90;;;;;;4067734;29;20256;-70
2022/09/08 07:13:50;;;;;;;1999.90;534.07;;;14.90;99.90;;;;;;4067493;29;20189;-70
2022/09/08 07:16:05;;;;;;;1999.90;770.70;;;15.00;99.90;;;;;;4066377;29;20200;-70
2022/09/08 07:18:12;;;;;;;1999.90;859.43;;;15.10;99.90;;;;;;4067477;29;20169;-70
2022/09/08 07:20:13;;;;;;;1999.90;423.27;;;15.20;99.90;;;;;;4066624;29;20228;-71
2022/09/08 07:22:32;;;;;;;1999.90;730.67;;;15.00;99.90;;;;;;4067174;29;20215;-70
2022/09/08 07:24:37;;;;;;;1999.90;592.53;;;15.00;99.90;;;;;;4065927;29;20193;-71
2022/09/08 07:26:47;;;;;;;1999.90;891.77;;;15.00;99.90;;;;;;4058385;29;20217;-69
2022/09/08 07:28:49;;;;;;;1999.90;274.53;;;15.20;99.90;;;;;;4064435;29;20222;-71
2022/09/08 07:30:56;;;;;;;1999.90;501.20;;;15.10;99.90;;;;;;4065843;29;20192;-72
2022/09/08 07:33:04;;;;;;;1999.90;688.97;;;15.10;99.90;;;;;;4067226;29;20180;-71
2022/09/08 07:35:19;;;;;;;1999.90;624.10;;;15.20;99.90;;;;;;4065291;29;20603;-71
2022/09/08 07:37:34;;;;;;;1999.90;449.00;;;15.20;99.90;;;;;;4067498;29;20192;-71
2022/09/08 07:39:47;;;;;;;1999.90;474.57;;;15.40;99.90;;;;;;4064520;29;20275;-71
2022/09/08 07:41:51;;;;;;;1999.90;824.40;;;15.60;99.90;;;;;;4066508;29;20196;-71
2022/09/08 07:43:57;;;;;;;1999.90;619.93;;;15.80;99.50;;;;;;4066848;29;20181;-68
2022/09/08 07:46:46;;;;;;;1999.90;912.87;;;15.60;99.50;;;;;;4066893;29;20170;-70
2022/09/08 07:48:49;;;;;;;1999.90;924.17;;;15.50;99.40;;;;;;4077326;29;20495;-70
2022/09/08 07:51:10;;;;;;;1999.90;896.73;;;15.50;99.00;;;;;;4066627;29;20181;-70
2022/09/08 07:53:28;;;;;;;1999.90;683.90;;;16.00;99.00;;;;;;4065435;29;20621;-70
2022/09/08 07:55:42;;;;;;;1999.90;943.13;;;16.40;98.60;;;;;;4065531;29;20182;-70
2022/09/08 07:57:54;;;;;;;1999.90;575.43;;;16.30;96.80;;;;;;4066654;29;20189;-70
2022/09/08 08:00:09;;;;;;;1999.90;892.37;;;16.20;97.90;;;;;;4064316;29;20220;-70
2022/09/08 08:02:47;;;;;;;1999.90;654.53;;;15.90;96.40;;;;;;4066458;29;20200;-70
2022/09/08 08:05:29;;;;;;;1999.90;677.70;;;15.70;97.80;;;;;;4066387;29;20238;-70
2022/09/08 08:07:55;;;;;;;1999.90;890.53;;;15.50;98.80;;;;;;4066653;29;20200;-70
2022/09/08 08:10:09;;;;;;;1999.90;634.10;;;15.60;98.60;;;;;;4064578;29;20213;-70
2022/09/08 08:12:28;;;;;;;1999.90;550.37;;;15.80;99.20;;;;;;4065145;29;20257;-70
2022/09/08 08:14:45;;;;;;;1999.90;570.80;;;16.10;97.30;;;;;;4066693;29;20185;-71
2022/09/08 08:17:02;;;;;;;1999.90;796.87;;;16.40;96.00;;;;;;4066664;29;20215;-71
2022/09/08 08:19:21;;;;;;;1999.90;799.17;;;16.80;94.90;;;;;;4065792;29;20224;-70
2022/09/08 08:21:27;;;;;;;1999.90;637.17;;;17.00;95.30;;;;;;4066614;29;20203;-70
2022/09/08 08:23:42;;;;;;;1999.90;554.80;;;17.00;94.10;;;;;;4066561;29;20644;-70
2022/09/08 08:25:48;;;;;;;1999.90;885.73;;;17.20;92.80;;;;;;4066363;29;20204;-70
2022/09/08 08:28:05;;;;;;;1999.90;999.90;;;17.30;92.50;;;;;;4066512;29;20628;-71
2022/09/08 08:30:22;;;;;;;1999.90;763.20;;;17.30;94.00;;;;;;4066003;29;20614;-70
2022/09/08 08:32:28;;;;;;;1999.90;857.73;;;17.40;92.90;;;;;;4066479;29;20176;-70
2022/09/08 08:34:42;;;;;;;1999.90;922.67;;;17.10;91.20;;;;;;4059896;29;20690;-72
2022/09/08 08:36:46;;;;;;;1999.90;873.27;;;16.50;91.80;;;;;;4072753;29;20200;-71
2022/09/08 08:38:53;;;;;;;1999.90;905.23;;;16.50;92.40;;;;;;4063727;29;20224;-71
2022/09/08 08:40:59;;;;;;;1999.90;768.60;;;16.60;91.60;;;;;;4064235;29;20199;-71
2022/09/08 08:43:13;;;;;;;1999.90;682.70;;;16.80;91.70;;;;;;4066186;29;20253;-71
2022/09/08 08:45:41;;;;;;;1999.90;754.83;;;17.20;93.40;;;;;;4066177;29;20692;-72
2022/09/08 08:48:16;;;;;;;1999.90;926.17;;;17.50;90.80;;;;;;4066914;29;20201;-72
2022/09/08 08:50:38;;;;;;;1999.90;999.90;;;17.40;84.30;;;;;;4064154;29;20216;-72
2022/09/08 08:52:52;;;;;;;1999.90;999.90;;;17.10;83.00;;;;;;4066532;29;20252;-72
2022/09/08 08:55:18;;;;;;;1999.90;988.03;;;16.50;87.60;;;;;;4066116;29;20228;-71
2022/09/08 08:57:30;;;;;;;1999.90;864.77;;;16.40;88.70;;;;;;4066071;29;20213;-72
2022/09/08 08:59:30;;;;;;;1999.90;999.90;;;16.40;88.80;;;;;;4065648;29;20220;-71
2022/09/08 09:01:43;;;;;;;1999.90;999.90;;;16.20;89.00;;;;;;4066124;29;20192;-71
2022/09/08 09:03:58;;;;;;;1999.90;999.90;;;16.20;89.60;;;;;;4064829;29;20578;-72
2022/09/08 09:06:15;;;;;;;1999.90;758.17;;;16.00;90.10;;;;;;4066148;29;20166;-71
2022/09/08 09:08:35;;;;;;;1999.90;999.90;;;16.20;89.50;;;;;;4065934;29;20217;-71
2022/09/08 09:11:07;;;;;;;1999.90;994.87;;;16.40;87.20;;;;;;4064813;29;20283;-71
2022/09/08 09:13:53;;;;;;;1999.90;930.23;;;16.30;88.80;;;;;;4068574;29;20213;-71
2022/09/08 09:16:19;;;;;;;1999.90;999.90;;;16.10;88.00;;;;;;4076906;29;20240;-71
2022/09/08 09:18:41;;;;;;;1999.90;983.93;;;16.10;84.70;;;;;;4068586;29;20173;-71
2022/09/08 09:20:57;;;;;;;1999.90;999.90;;;16.20;84.30;;;;;;4068579;29;20319;-72
2022/09/08 09:23:13;;;;;;;1999.90;904.13;;;16.20;87.10;;;;;;4068776;29;20180;-72
2022/09/08 09:25:40;;;;;;;1999.90;999.90;;;16.80;82.70;;;;;;4068756;29;20240;-72
2022/09/08 09:28:12;;;;;;;1999.90;979.53;;;16.80;76.80;;;;;;4067349;29;20192;-71
2022/09/08 09:30:24;;;;;;;1999.90;729.07;;;16.70;80.50;;;;;;4067849;29;20286;-71
2022/09/08 09:33:15;;;;;;;1999.90;999.90;;;17.00;81.60;;;;;;4068485;29;20640;-72
2022/09/08 09:35:55;;;;;;;1999.90;999.90;;;17.10;79.40;;;;;;4076172;29;20243;-72
2022/09/08 09:38:20;;;;;;;1999.90;999.90;;;17.00;79.70;;;;;;4071078;29;20177;-72
2022/09/08 09:40:50;;;;;;;1999.90;756.90;;;17.00;78.70;;;;;;4070594;29;20212;-72
2022/09/08 09:42:54;;;;;;;1999.90;913.73;;;17.20;77.60;;;;;;4070576;29;20188;-71
2022/09/08 09:45:16;;;;;;;1999.90;999.90;;;17.10;78.30;;;;;;4085342;29;20192;-71
2022/09/08 09:47:33;;;;;;;1999.90;964.53;;;17.40;74.90;;;;;;4071019;29;20225;-72
2022/09/08 09:49:54;;;;;;;1999.90;999.90;;;17.50;74.70;;;;;;4084702;29;20215;-71
2022/09/08 09:52:02;;;;;;;1999.90;999.90;;;17.80;73.30;;;;;;4070791;29;20592;-72
2022/09/08 09:54:36;;;;;;;1999.90;825.93;;;17.80;73.20;;;;;;4070930;29;20216;-71
2022/09/08 09:57:06;;;;;;;1999.90;999.90;;;17.90;72.70;;;;;;4069715;29;20207;-71
2022/09/08 09:59:28;;;;;;;1999.90;999.90;;;17.40;71.50;;;;;;4082886;29;20216;-72
2022/09/08 10:01:38;;;;;;;1999.90;947.80;;;17.30;70.90;;;;;;4069486;29;20273;-72
2022/09/08 10:03:50;;;;;;;1999.90;999.90;;;17.80;72.90;;;;;;4069066;29;20174;-73
2022/09/08 10:06:03;;;;;;;1999.90;999.90;;;18.30;68.30;;;;;;4085354;29;20196;-71
2022/09/08 10:08:42;;;;;;;1999.90;999.90;;;18.10;69.20;;;;;;4071170;29;20185;-71
2022/09/08 10:11:03;;;;;;;1999.90;935.43;;;18.00;68.20;;;;;;4085690;29;20683;-71
2022/09/08 10:13:41;;;;;;;1999.90;999.90;;;18.60;66.20;;;;;;4070801;29;20177;-72
2022/09/08 10:16:14;;;;;;;1999.90;999.90;;;19.20;62.90;;;;;;4071588;29;20260;-72
2022/09/08 10:18:52;;;;;;;1999.90;961.10;;;19.50;61.80;;;;;;4052951;29;20193;-72
2022/09/08 10:21:40;;;;;;;1999.90;776.50;;;20.10;61.30;;;;;;4068581;29;20301;-74
2022/09/08 10:24:11;;;;;;;1999.90;550.40;;;19.70;59.20;;;;;;4067946;29;20912;-72
2022/09/08 10:26:39;;;;;;;1999.90;999.90;;;19.80;57.90;;;;;;4067182;29;20588;-72
2022/09/08 10:28:56;;;;;;;1999.90;994.93;;;20.00;58.10;;;;;;4066306;29;20600;-72
2022/09/08 10:31:38;;;;;;;1999.90;964.67;;;20.40;56.80;;;;;;4068561;29;20302;-72
2022/09/08 10:33:48;;;;;;;1999.90;999.90;;;20.00;57.00;;;;;;4067825;29;20192;-72
2022/09/08 10:35:53;;;;;;;1999.90;999.90;;;19.80;58.30;;;;;;4070044;29;20220;-72
2022/09/08 10:38:17;;;;;;;1999.90;999.90;;;19.90;55.00;;;;;;4069650;29;20193;-72
2022/09/08 10:40:37;;;;;;;1999.90;999.90;;;19.70;54.80;;;;;;4067918;29;20217;-72
2022/09/08 10:42:52;;;;;;;1999.90;999.90;;;19.80;55.80;;;;;;4067240;29;20273;-72
2022/09/08 10:45:21;;;;;;;1999.90;991.10;;;19.50;56.50;;;;;;4068434;29;20174;-72
2022/09/08 10:48:08;;;;;;;1999.90;999.90;;;19.50;59.10;;;;;;4068438;29;20634;-70
2022/09/08 10:50:17;;;;;;;1999.90;999.90;;;19.60;57.00;;;;;;4082377;29;20258;-71
2022/09/08 10:52:31;;;;;;;1999.90;938.27;;;20.00;54.90;;;;;;4082965;29;20188;-71
2022/09/08 10:54:53;;;;;;;1999.90;765.13;;;20.60;54.50;;;;;;4068380;29;20178;-71
2022/09/08 10:56:58;;;;;;;1999.90;999.90;;;21.10;52.50;;;;;;4066919;29;20196;-71
2022/09/08 10:59:34;;;;;;;1999.90;607.50;;;21.30;51.90;;;;;;4066296;29;20692;-71
2022/09/08 11:02:05;;;;;;;1999.90;999.90;;;21.00;53.20;;;;;;4066924;29;20212;-73
2022/09/08 11:04:42;;;;;;;1999.90;928.57;;;21.20;52.40;;;;;;4066763;29;20649;-71
2022/09/08 11:07:06;;;;;;;1999.90;999.90;;;20.70;52.50;;;;;;4067905;29;20260;-72
2022/09/08 11:09:23;;;;;;;1999.90;835.47;;;20.70;52.90;;;;;;4067420;29;20859;-72
2022/09/08 11:11:45;;;;;;;1999.90;998.83;;;21.50;52.40;;;;;;4068002;29;20189;-72
2022/09/08 11:14:35;;;;;;;1999.90;977.67;;;22.20;48.40;;;;;;4068053;29;20614;-71
2022/09/08 11:16:55;;;;;;;1999.90;998.50;;;21.90;48.40;;;;;;4066885;29;20184;-72
2022/09/08 11:19:46;;;;;;;1999.90;999.90;;;21.40;50.70;;;;;;4050448;29;20205;-72
2022/09/08 11:22:14;;;;;;;1999.90;999.90;;;21.90;48.20;;;;;;4066294;29;20283;-72
2022/09/08 11:25:02;;;;;;;1999.90;836.50;;;22.60;47.20;;;;;;4066650;29;20193;-72
2022/09/08 11:27:33;;;;;;;1999.90;999.90;;;24.00;44.40;;;;;;4068208;29;20649;-72
2022/09/08 11:29:37;;;;;;;1999.90;818.57;;;23.50;44.10;;;;;;4066390;29;20675;-73
2022/09/08 11:31:54;;;;;;;1999.90;997.77;;;21.60;47.30;;;;;;4065666;29;20696;-73
2022/09/08 11:34:32;;;;;;;1999.90;999.90;;;20.50;52.40;;;;;;4065663;29;20181;-72
2022/09/08 11:36:41;;;;;;;1999.90;999.90;;;19.90;52.20;;;;;;4066945;29;20700;-73
2022/09/08 11:39:07;;;;;;;1999.90;912.57;;;20.60;50.70;;;;;;4064968;29;20204;-73
2022/09/08 11:41:35;;;;;;;1999.90;999.90;;;22.10;47.70;;;;;;4067246;29;20264;-73
2022/09/08 11:44:17;;;;;;;1999.90;999.90;;;22.90;44.70;;;;;;4066777;29;20190;-73
2022/09/08 11:46:49;;;;;;;1999.90;999.90;;;23.20;44.20;;;;;;4072469;29;20197;-74
2022/09/08 11:48:59;;;;;;;1999.90;999.90;;;22.30;46.30;;;;;;4065894;29;20212;-74
2022/09/08 11:51:41;;;;;;;1999.90;999.90;;;22.80;46.10;;;;;;4065454;29;20208;-74
2022/09/08 11:53:58;;;;;;;1999.90;999.90;;;23.70;43.30;;;;;;4081186;29;20283;-75
2022/09/08 11:56:29;;;;;;;1999.90;980.80;;;24.30;40.50;;;;;;4066265;29;20185;-75
2022/09/08 11:59:12;;;;;;;1999.90;999.90;;;24.80;41.30;;;;;;4066577;29;20177;-75
2022/09/08 12:01:47;;;;;;;1999.90;939.03;;;24.00;38.40;;;;;;4065124;29;20212;-75
2022/09/08 12:04:29;;;;;;;1999.90;967.07;;;22.40;42.80;;;;;;4066473;29;20173;-75
2022/09/08 12:07:26;;;;;;;1999.90;967.47;;;23.90;44.10;;;;;;4065130;29;20268;-75
2022/09/08 12:10:23;;;;;;;1999.90;927.20;;;26.30;39.00;;;;;;4064505;29;20279;-76
2022/09/08 12:12:40;;;;;;;1999.90;999.90;;;25.20;38.90;;;;;;4066304;29;20181;-76
2022/09/08 12:15:02;;;;;;;1999.90;891.43;;;24.60;39.90;;;;;;4065201;29;20169;-76
2022/09/08 12:17:21;;;;;;;1999.90;999.90;;;25.20;40.90;;;;;;4072273;29;20196;-77
2022/09/08 12:19:39;;;;;;;1999.90;999.90;;;26.00;37.00;;;;;;4066747;29;20225;-77
2022/09/08 12:22:30;;;;;;;1999.90;999.90;;;26.10;36.70;;;;;;4066926;29;20268;-79
2022/09/08 12:24:39;;;;;;;1999.90;999.90;;;24.30;37.70;;;;;;4065158;29;20364;-77
2022/09/08 12:27:01;;;;;;;1999.90;936.17;;;24.40;38.50;;;;;;4066616;29;20703;-77
2022/09/08 12:29:37;;;;;;;1999.90;999.90;;;25.10;37.70;;;;;;4064982;29;20683;-77
2022/09/08 12:31:52;;;;;;;1999.90;999.90;;;26.40;35.90;;;;;;4065555;29;20710;-77
2022/09/08 12:34:17;;;;;;;1999.90;999.90;;;26.50;36.30;;;;;;4065408;29;20284;-77
2022/09/08 12:36:35;;;;;;;1999.90;999.90;;;26.20;34.30;;;;;;4066884;29;20189;-78
2022/09/08 12:39:33;;;;;;;1999.90;999.90;;;26.50;34.60;;;;;;4066340;29;20184;-82
2022/09/08 12:42:13;;;;;;;1999.90;999.90;;;25.20;34.70;;;;;;4060437;29;20236;-78
2022/09/08 12:44:59;;;;;;;1999.90;827.90;;;21.90;41.80;;;;;;4064746;29;20203;-78
2022/09/08 12:47:22;;;;;;;1999.90;819.13;;;21.00;45.50;;;;;;4082051;29;20193;-78
2022/09/08 12:49:48;;;;;;;1999.90;996.30;;;20.50;47.10;;;;;;4068687;29;20247;-78
2022/09/08 12:51:53;;;;;;;1999.90;957.63;;;20.80;49.60;;;;;;4068017;29;20189;-77
2022/09/08 12:54:24;;;;;;;1999.90;999.90;;;22.70;45.70;;;;;;4068024;29;20241;-78
2022/09/08 12:57:05;;;;;;;1999.90;999.90;;;24.60;40.00;;;;;;4083631;29;20628;-77
2022/09/08 12:59:18;;;;;;;1999.90;944.03;;;25.30;38.00;;;;;;4068450;29;20228;-77
2022/09/08 13:01:35;;;;;;;1999.90;999.90;;;25.90;36.90;;;;;;4069049;29;20205;-78
2022/09/08 13:03:37;;;;;;;1999.90;914.00;;;24.80;36.10;;;;;;4068189;29;20747;-76
2022/09/08 13:06:23;;;;;;;1999.90;999.90;;;23.50;39.40;;;;;;4067969;29;20199;-77
2022/09/08 13:08:53;;;;;;;1999.90;805.00;;;22.30;43.40;;;;;;4084306;29;20667;-78
2022/09/08 13:11:08;;;;;;;1999.90;990.77;;;21.60;44.10;;;;;;4069262;29;20172;-78
2022/09/08 13:13:42;;;;;;;1999.90;999.90;;;23.50;41.70;;;;;;4067911;29;20173;-78
2022/09/08 13:16:32;;;;;;;1999.90;999.90;;;23.50;38.60;;;;;;4070321;29;20169;-78
2022/09/08 13:18:45;;;;;;;1999.90;999.90;;;24.60;38.20;;;;;;4074012;29;20212;-79
2022/09/08 13:20:59;;;;;;;1999.90;999.90;;;23.90;38.40;;;;;;4083545;29;20770;-78
2022/09/08 13:23:15;;;;;;;1999.90;999.90;;;22.20;41.10;;;;;;4069056;29;20212;-79
2022/09/08 13:25:54;;;;;;;1999.90;988.57;;;21.00;44.10;;;;;;4069117;29;20204;-78
2022/09/08 13:28:55;;;;;;;1999.90;999.90;;;23.80;40.90;;;;;;4052044;29;20607;-79
2022/09/08 13:31:08;;;;;;;1999.90;951.43;;;25.10;37.50;;;;;;4082537;29;20694;-78
2022/09/08 13:33:45;;;;;;;1999.90;999.90;;;25.70;34.10;;;;;;4067346;29;20725;-77
2022/09/08 13:36:20;;;;;;;1999.90;999.90;;;24.30;37.10;;;;;;4070458;28;20283;-78
2022/09/08 13:38:46;;;;;;;1999.90;984.37;;;25.30;35.70;;;;;;4068516;29;20212;-78
2022/09/08 13:41:11;;;;;;;1999.90;991.87;;;27.00;34.60;;;;;;4053067;29;20680;-78
2022/09/08 13:43:23;;;;;;;1999.90;999.90;;;28.90;30.60;;;;;;4051950;29;20726;-79
2022/09/08 13:46:00;;;;;;;1999.90;999.90;;;30.20;27.80;;;;;;4051869;29;20194;-76
2022/09/08 13:48:44;;;;;;;1999.90;999.90;;;30.00;27.60;;;;;;4051698;29;20293;-77
2022/09/08 13:51:18;;;;;;;1999.90;999.90;;;29.00;28.20;;;;;;4053049;29;20178;-77
2022/09/08 13:53:39;;;;;;;1999.90;999.90;;;27.80;29.20;;;;;;4051547;29;20185;-76
2022/09/08 13:55:59;;;;;;;1999.90;999.90;;;26.90;28.80;;;;;;4051486;29;20289;-77
2022/09/08 13:58:27;;;;;;;1999.90;999.90;;;27.80;29.30;;;;;;4050745;29;20194;-77
2022/09/08 14:00:28;;;;;;;1999.90;999.90;;;27.80;28.70;;;;;;4050868;29;20250;-75
2022/09/08 14:03:03;;;;;;;1999.90;999.90;;;28.90;28.70;;;;;;4052669;29;20265;-77
2022/09/08 14:05:22;;;;;;;1999.90;999.90;;;29.80;27.00;;;;;;4051275;29;20236;-75
2022/09/08 14:07:27;;;;;;;1999.90;998.90;;;27.20;28.50;;;;;;4051267;29;20636;-76
2022/09/08 14:09:34;;;;;;;1999.90;999.90;;;27.50;29.60;;;;;;4066214;29;20203;-76
2022/09/08 14:12:06;;;;;;;1999.90;999.90;;;28.30;28.50;;;;;;4051086;29;20208;-75
2022/09/08 14:14:15;;;;;;;1999.90;999.90;;;28.60;27.50;;;;;;4051225;29;20635;-75
2022/09/08 14:16:29;;;;;;;1999.90;999.90;;;27.80;28.10;;;;;;4052337;29;20758;-75
2022/09/08 14:18:47;;;;;;;1999.90;999.90;;;27.40;29.50;;;;;;4066312;29;20861;-74
2022/09/08 14:21:12;;;;;;;1999.90;999.90;;;28.30;28.80;;;;;;4050945;29;20220;-75
2022/09/08 14:23:33;;;;;;;1999.90;999.90;;;26.30;29.60;;;;;;4051089;29;20211;-74
2022/09/08 14:25:36;;;;;;;1999.90;999.90;;;26.90;29.50;;;;;;4051045;29;20178;-75
2022/09/08 14:27:52;;;;;;;1999.90;999.90;;;27.50;29.10;;;;;;4050876;29;20198;-74
2022/09/08 14:30:17;;;;;;;1999.90;999.90;;;26.40;29.60;;;;;;4065884;29;20207;-75
2022/09/08 14:32:40;;;;;;;1999.90;963.13;;;26.50;29.70;;;;;;4050810;29;20629;-74
2022/09/08 14:35:10;;;;;;;1999.90;999.90;;;27.20;29.60;;;;;;4051036;29;20214;-75
2022/09/08 14:37:14;;;;;;;1999.90;999.90;;;29.40;28.30;;;;;;4050859;29;20229;-75
2022/09/08 14:39:45;;;;;;;1999.90;999.90;;;29.60;27.00;;;;;;4065762;29;20288;-75
2022/09/08 14:42:23;;;;;;;1999.90;999.90;;;29.40;27.20;;;;;;4050822;29;20280;-74
2022/09/08 14:44:36;;;;;;;1999.90;999.90;;;26.90;28.30;;;;;;4066536;29;20205;-73
2022/09/08 14:47:26;;;;;;;1999.90;999.90;;;25.50;30.40;;;;;;4066538;29;20176;-76
2022/09/08 14:49:38;;;;;;;1999.90;999.90;;;25.50;32.30;;;;;;4055781;29;20295;-74
2022/09/08 14:52:20;;;;;;;1999.90;999.90;;;26.50;30.00;;;;;;4067358;29;20830;-74
2022/09/08 14:54:39;;;;;;;1999.90;999.90;;;26.90;30.00;;;;;;4067314;29;20220;-74
2022/09/08 14:56:42;;;;;;;1999.90;999.90;;;28.10;28.50;;;;;;4067422;29;20256;-74
2022/09/08 14:59:04;;;;;;;1999.90;999.90;;;27.20;29.30;;;;;;4065204;29;20268;-74
2022/09/08 15:01:29;;;;;;;1999.90;999.90;;;27.30;29.10;;;;;;4065988;29;20706;-74
2022/09/08 15:03:34;;;;;;;1999.90;999.90;;;28.20;27.70;;;;;;4067315;29;20174;-74
2022/09/08 15:05:35;;;;;;;1999.90;999.90;;;28.20;27.70;;;;;;4066080;29;20657;-73
2022/09/08 15:07:44;;;;;;;1999.90;999.90;;;28.30;27.60;;;;;;4082544;29;20187;-74
2022/09/08 15:09:58;;;;;;;1999.90;999.90;;;28.50;27.20;;;;;;4064887;29;20197;-73
2022/09/08 15:12:34;;;;;;;1999.90;999.90;;;28.90;27.30;;;;;;4081805;29;20176;-74
2022/09/08 15:14:56;;;;;;;1999.90;999.90;;;28.60;27.70;;;;;;4081730;29;20184;-73
2022/09/08 15:17:47;;;;;;;1999.90;999.90;;;28.20;28.10;;;;;;4067203;29;20185;-73
2022/09/08 15:20:00;;;;;;;1999.90;999.90;;;28.80;26.40;;;;;;4065966;29;20323;-73
2022/09/08 15:22:09;;;;;;;1999.90;999.90;;;29.20;25.70;;;;;;4066523;29;20606;-73
2022/09/08 15:24:35;;;;;;;1999.90;999.90;;;28.70;26.30;;;;;;4066756;29;20610;-72
2022/09/08 15:26:46;;;;;;;1999.90;999.90;;;29.00;25.60;;;;;;4067585;29;20166;-73
2022/09/08 15:29:13;;;;;;;1999.90;999.90;;;29.20;25.90;;;;;;4065071;29;20785;-72
2022/09/08 15:31:47;;;;;;;1999.90;999.90;;;28.20;26.80;;;;;;4049848;29;20252;-72
2022/09/08 15:34:02;;;;;;;1999.90;999.90;;;28.10;27.30;;;;;;4081305;29;20194;-73
2022/09/08 15:36:22;;;;;;;1999.90;999.90;;;26.70;28.40;;;;;;4065507;29;20197;-72
2022/09/08 15:38:42;;;;;;;1999.90;999.90;;;25.80;29.90;;;;;;4065510;29;20177;-73
2022/09/08 15:41:15;;;;;;;1999.90;999.90;;;25.10;30.70;;;;;;4049806;29;20221;-73
2022/09/08 15:43:30;;;;;;;1999.90;957.37;;;24.10;33.50;;;;;;4065279;29;20514;-72
2022/09/08 15:45:59;;;;;;;1999.90;999.90;;;24.10;33.80;;;;;;4065209;29;20895;-72
2022/09/08 15:48:12;;;;;;;1999.90;999.90;;;24.50;33.00;;;;;;4065289;29;20256;-73
2022/09/08 15:50:24;;;;;;;1999.90;996.67;;;25.20;31.10;;;;;;4065999;29;20231;-72
2022/09/08 15:53:06;;;;;;;1999.90;999.90;;;25.20;30.90;;;;;;4066567;29;20181;-73
2022/09/08 15:55:32;;;;;;;1999.90;999.90;;;25.40;31.60;;;;;;4049694;29;20193;-73
2022/09/08 15:58:09;;;;;;;1999.90;920.73;;;24.90;31.90;;;;;;4065268;29;20181;-73
2022/09/08 16:00:32;;;;;;;1999.90;967.80;;;25.40;31.90;;;;;;4048870;29;20677;-73
2022/09/08 16:03:00;;;;;;;1999.90;689.77;;;24.80;32.10;;;;;;4065222;29;20662;-73
2022/09/08 16:05:27;;;;;;;1999.90;806.23;;;23.50;35.00;;;;;;4049392;29;20343;-73
2022/09/08 16:07:56;;;;;;;1999.90;769.53;;;22.10;38.20;;;;;;4049391;29;20704;-73
2022/09/08 16:10:13;;;;;;;1999.90;848.60;;;21.50;40.20;;;;;;4065493;29;20205;-73
2022/09/08 16:12:19;;;;;;;1999.90;642.23;;;21.60;39.50;;;;;;4064970;29;20197;-73
2022/09/08 16:14:38;;;;;;;1999.90;623.57;;;21.70;40.00;;;;;;4064849;29;20213;-72
2022/09/08 16:16:41;;;;;;;1999.90;760.93;;;21.10;41.70;;;;;;4065067;29;20260;-73
2022/09/08 16:18:47;;;;;;;1999.90;566.57;;;20.30;41.50;;;;;;4079825;29;20257;-73
2022/09/08 16:21:13;;;;;;;1999.90;520.87;;;19.70;43.50;;;;;;4065756;29;20223;-73
2022/09/08 16:23:39;;;;;;;1999.90;999.90;;;19.60;44.50;;;;;;4067907;29;20192;-73
2022/09/08 16:25:47;;;;;;;1999.90;644.20;;;19.50;45.50;;;;;;4069431;29;20171;-74
2022/09/08 16:28:02;;;;;;;1999.90;999.90;;;19.60;45.80;;;;;;4069250;29;20165;-73
2022/09/08 16:30:23;;;;;;;1999.90;211.07;;;19.40;45.90;;;;;;4082930;29;20216;-73
2022/09/08 16:32:31;;;;;;;1999.90;913.83;;;19.30;46.20;;;;;;4069255;29;20170;-74
2022/09/08 16:34:33;;;;;;;1999.90;999.90;;;19.30;45.90;;;;;;4068998;29;20266;-73
2022/09/08 16:36:35;;;;;;;1999.90;789.03;;;19.10;47.70;;;;;;4069137;29;20222;-74
2022/09/08 16:39:04;;;;;;;1999.90;825.57;;;19.80;47.00;;;;;;4068921;29;20209;-73
2022/09/08 16:41:42;;;;;;;1999.90;827.10;;;21.30;42.30;;;;;;4083743;29;20212;-74
2022/09/08 16:43:55;;;;;;;1999.90;999.90;;;21.50;41.60;;;;;;4067994;29;20263;-74
2022/09/08 16:46:20;;;;;;;1999.90;822.70;;;21.60;41.00;;;;;;4068128;29;20702;-74
2022/09/08 16:48:25;;;;;;;1999.90;999.90;;;20.90;42.80;;;;;;4067918;29;20651;-74
2022/09/08 16:50:40;;;;;;;1999.90;830.33;;;20.40;44.00;;;;;;4083116;29;20184;-73
2022/09/08 16:52:54;;;;;;;1999.90;513.30;;;20.30;44.50;;;;;;4067511;29;20691;-74
2022/09/08 16:55:13;;;;;;;1999.90;462.13;;;20.00;45.10;;;;;;4069290;29;20205;-74
2022/09/08 16:57:39;;;;;;;1999.90;826.03;;;19.50;47.10;;;;;;4067655;29;20195;-74
2022/09/08 17:00:15;;;;;;;1999.90;717.43;;;19.40;47.90;;;;;;4068709;29;20205;-74
2022/09/08 17:02:34;;;;;;;1999.90;800.53;;;19.90;47.80;;;;;;4067956;29;20188;-74
2022/09/08 17:04:48;;;;;;;1999.90;290.10;;;20.40;46.00;;;;;;4067584;29;20256;-76
2022/09/08 17:07:16;;;;;;;1999.90;801.97;;;20.10;46.10;;;;;;4075465;29;20192;-73
2022/09/08 17:09:19;;;;;;;1999.90;746.67;;;19.90;46.60;;;;;;4067664;29;20209;-74
2022/09/08 17:11:36;;;;;;;1999.90;563.70;;;19.70;47.60;;;;;;4067731;29;20196;-72
2022/09/08 17:13:36;;;;;;;1999.90;828.90;;;19.60;48.00;;;;;;4068612;29;20533;-74
2022/09/08 17:15:55;;;;;;;1999.90;750.93;;;19.10;49.40;;;;;;4068174;29;20196;-76
2022/09/08 17:18:04;;;;;;;1999.90;813.33;;;19.10;50.00;;;;;;4068398;29;20185;-75
2022/09/08 17:20:28;;;;;;;1975.60;716.50;;;19.00;49.70;;;;;;4067196;29;20219;-77
2022/09/08 17:22:50;;;;;;;1999.90;999.90;;;19.00;50.20;;;;;;4054561;29;20608;-74
2022/09/08 17:25:24;;;;;;;1999.90;780.20;;;18.90;50.80;;;;;;4068226;29;20182;-73
2022/09/08 17:27:54;;;;;;;1999.90;821.60;;;18.60;51.70;;;;;;4068217;29;20938;-75
2022/09/08 17:30:18;;;;;;;1999.90;860.60;;;18.40;52.80;;;;;;4067587;29;20706;-73
2022/09/08 17:32:49;;;;;;;1999.90;584.87;;;18.30;52.50;;;;;;4068238;29;20197;-76
2022/09/08 17:34:50;;;;;;;1999.90;999.90;;;18.10;53.50;;;;;;4068259;29;20177;-76
2022/09/08 17:37:03;;;;;;;1999.90;817.90;;;18.00;53.70;;;;;;4068677;29;20332;-77
2022/09/08 17:39:30;;;;;;;1999.90;628.87;;;18.00;53.80;;;;;;4070314;29;20688;-75
2022/09/08 17:41:52;;;;;;;1999.90;598.20;;;17.80;55.70;;;;;;4070060;29;20209;-75
2022/09/08 17:44:08;;;;;;;1999.90;999.90;;;17.60;58.00;;;;;;4070768;29;20188;-76
2022/09/08 17:46:33;;;;;;;1999.90;812.10;;;17.40;58.90;;;;;;4070149;29;20170;-73
2022/09/08 17:48:56;;;;;;;1999.90;999.90;;;17.30;58.40;;;;;;4055682;29;20592;-74